createdAt,value
2022-08-24T00:02:02.243Z,101704.72
2022-08-24T00:04:32.548Z,101693.19
2022-08-24T00:07:02.408Z,101697.75
2022-08-24T00:09:33.236Z,101695.13
2022-08-24T00:12:02.930Z,101703.25
2022-08-24T00:14:32.484Z,101697.06
2022-08-24T00:17:01.735Z,101700.69
2022-08-24T00:19:30.232Z,101712.38
2022-08-24T00:22:00.269Z,101714.19
2022-08-24T00:24:28.740Z,101715.19
2022-08-24T00:26:57.399Z,101713.47
2022-08-24T00:29:26.315Z,101716.16
2022-08-24T00:31:54.860Z,101714.41
2022-08-24T00:34:23.227Z,101712.69
2022-08-24T00:36:51.648Z,101714.53
2022-08-24T00:39:20.670Z,101719.91
2022-08-24T00:41:51.608Z,101716.38
2022-08-24T00:44:21.344Z,101721.75
2022-08-24T00:47:11.037Z,101721.81
2022-08-24T00:49:54.766Z,101726.34
2022-08-24T00:52:29.758Z,101719.28
2022-08-24T00:55:10.444Z,101734.47
2022-08-24T00:57:42.482Z,101722.06
2022-08-24T01:00:16.897Z,101719.44
2022-08-24T01:02:48.998Z,101723.06
2022-08-24T01:05:19.209Z,101727.53
2022-08-24T01:07:50.957Z,101727.56
2022-08-24T01:10:25.736Z,101716.88
2022-08-24T01:13:00.348Z,101724.94
2022-08-24T01:15:33.020Z,101721.44
2022-08-24T01:18:20.971Z,101721.50
2022-08-24T01:20:58.065Z,101720.69
2022-08-24T01:23:45.077Z,101711.84
2022-08-24T01:26:40.090Z,101721.72
2022-08-24T01:29:13.451Z,101717.28
2022-08-24T01:31:42.643Z,101712.84
2022-08-24T01:34:13.119Z,101719.13
2022-08-24T01:36:49.170Z,101719.19
2022-08-24T01:39:25.385Z,101721.91
2022-08-24T01:41:54.237Z,101718.34
2022-08-24T01:44:25.176Z,101719.28
2022-08-24T01:46:55.752Z,101719.31
2022-08-24T01:49:26.340Z,101727.38
2022-08-24T01:51:55.323Z,101727.38
2022-08-24T01:54:24.608Z,101723.00
2022-08-24T01:56:53.350Z,101727.47
2022-08-24T01:59:22.541Z,101723.94
2022-08-24T02:02:03.276Z,101729.28
2022-08-24T02:04:36.137Z,101732.84
2022-08-24T02:07:04.690Z,101743.56
2022-08-24T02:09:36.739Z,101737.34
2022-08-24T02:12:07.587Z,101740.06
2022-08-24T02:14:37.345Z,101738.31
2022-08-24T02:17:08.213Z,101746.28
2022-08-24T02:19:37.805Z,101741.81
2022-08-24T02:22:10.534Z,101740.03
2022-08-24T02:24:40.439Z,101740.97
2022-08-24T02:27:08.972Z,101738.31
2022-08-24T02:29:39.186Z,101733.03
2022-08-24T02:32:07.572Z,101740.19
2022-08-24T02:34:36.511Z,101745.53
2022-08-24T02:37:05.425Z,101734.00
2022-08-24T02:39:34.069Z,101735.81
2022-08-24T02:42:06.833Z,101729.63
2022-08-24T02:44:35.536Z,101737.66
2022-08-24T02:47:04.312Z,101729.69
2022-08-24T02:49:35.543Z,101734.16
2022-08-24T02:52:04.921Z,101735.06
2022-08-24T02:54:35.190Z,101742.22
2022-08-24T02:57:03.815Z,101739.56
2022-08-24T02:59:32.362Z,101736.91
2022-08-24T03:02:00.697Z,101740.50
2022-08-24T03:04:29.278Z,101735.16
2022-08-24T03:06:59.573Z,101736.06
2022-08-24T03:09:28.931Z,101740.53
2022-08-24T03:11:59.138Z,101743.22
2022-08-24T03:14:27.525Z,101742.38
2022-08-24T03:16:56.429Z,101742.38
2022-08-24T03:19:24.839Z,101747.72
2022-08-24T03:21:54.224Z,101743.31
2022-08-24T03:24:23.438Z,101740.66
2022-08-24T03:26:52.020Z,101752.22
2022-08-24T03:29:20.440Z,101750.50
2022-08-24T03:31:54.765Z,101752.28
2022-08-24T03:34:25.121Z,101754.03
2022-08-24T03:36:53.518Z,101754.97
2022-08-24T03:39:21.874Z,101751.38
2022-08-24T03:41:54.322Z,101753.16
2022-08-24T03:44:25.190Z,101753.16
2022-08-24T03:46:55.483Z,101757.56
2022-08-24T03:49:26.214Z,101755.81
2022-08-24T03:51:54.733Z,101754.03
2022-08-24T03:54:25.312Z,101760.31
2022-08-24T03:56:53.855Z,101752.31
2022-08-24T03:59:22.244Z,101758.53
2022-08-24T04:01:56.152Z,101758.56
2022-08-24T04:04:26.693Z,101757.69
2022-08-24T04:06:55.033Z,101758.63
2022-08-24T04:09:24.696Z,101757.75
2022-08-24T04:11:53.570Z,101766.63
2022-08-24T04:14:27.710Z,101756.00
2022-08-24T04:17:08.778Z,101759.59
2022-08-24T04:19:57.867Z,101760.53
2022-08-24T04:22:36.386Z,101762.31
2022-08-24T04:25:08.917Z,101760.56
2022-08-24T04:27:40.795Z,101765.03
2022-08-24T04:30:14.220Z,101767.72
2022-08-24T04:33:02.097Z,101767.72
2022-08-24T04:35:31.097Z,101777.53
2022-08-24T04:37:59.580Z,101773.94
2022-08-24T04:40:27.998Z,101772.22
2022-08-24T04:42:59.120Z,101774.00
2022-08-24T04:45:29.595Z,101779.34
2022-08-24T04:47:58.385Z,101782.88
2022-08-24T04:50:28.429Z,101782.88
2022-08-24T04:52:58.573Z,101785.53
2022-08-24T04:55:27.672Z,101779.28
2022-08-24T04:57:56.159Z,101786.41
2022-08-24T05:00:24.802Z,101784.59
2022-08-24T05:02:57.369Z,101780.19
2022-08-24T05:05:28.829Z,101789.00
2022-08-24T05:07:57.399Z,101791.66
2022-08-24T05:10:26.733Z,101788.94
2022-08-24T05:13:02.358Z,101786.19
2022-08-24T05:15:31.613Z,101785.25
2022-08-24T05:18:00.983Z,101792.31
2022-08-24T05:20:29.381Z,101795.78
2022-08-24T05:23:03.805Z,101790.41
2022-08-24T05:25:34.015Z,101791.25
2022-08-24T05:28:02.471Z,101792.97
2022-08-24T05:30:31.073Z,101796.47
2022-08-24T05:33:00.114Z,101798.16
2022-08-24T05:35:28.707Z,101804.38
2022-08-24T05:37:59.704Z,101805.19
2022-08-24T05:40:37.643Z,101808.63
2022-08-24T05:43:06.553Z,101816.53
2022-08-24T05:45:34.980Z,101804.84
2022-08-24T05:48:03.904Z,101815.47
2022-08-24T05:50:57.865Z,101816.22
2022-08-24T05:53:30.235Z,101816.09
2022-08-24T05:56:07.941Z,101811.53
2022-08-24T05:58:39.492Z,101807.84
2022-08-24T06:01:11.530Z,101819.28
2022-08-24T06:03:40.506Z,101818.25
2022-08-24T06:06:11.577Z,101815.31
2022-08-24T06:08:42.929Z,101814.16
2022-08-24T06:11:29.875Z,101824.38
2022-08-24T06:14:02.739Z,101816.13
2022-08-24T06:16:39.986Z,101829.22
2022-08-24T06:19:11.745Z,101832.63
2022-08-24T06:21:41.182Z,101836.84
2022-08-24T06:24:09.881Z,101836.66
2022-08-24T06:26:57.169Z,101836.44
2022-08-24T06:29:25.603Z,101838.84
2022-08-24T06:31:58.553Z,101841.28
2022-08-24T06:34:28.974Z,101845.53
2022-08-24T06:36:57.879Z,101845.31
2022-08-24T06:39:28.878Z,101847.84
2022-08-24T06:41:58.355Z,101844.97
2022-08-24T06:44:34.339Z,101847.50
2022-08-24T06:47:13.335Z,101842.91
2022-08-24T06:49:42.175Z,101846.31
2022-08-24T06:52:13.506Z,101848.78
2022-08-24T06:54:44.132Z,101851.00
2022-08-24T06:57:12.528Z,101844.09
2022-08-24T06:59:43.182Z,101847.94
2022-08-24T07:02:15.943Z,101840.34
2022-08-24T07:04:46.614Z,101839.38
2022-08-24T07:07:33.965Z,101843.94
2022-08-24T07:10:07.288Z,101838.19
2022-08-24T07:12:36.905Z,101848.66
2022-08-24T07:15:11.495Z,101856.47
2022-08-24T07:17:46.465Z,101857.22
2022-08-24T07:20:15.488Z,101866.81
2022-08-24T07:23:12.643Z,101862.09
2022-08-24T07:25:48.925Z,101872.69
2022-08-24T07:28:31.841Z,101874.31
2022-08-24T07:31:02.179Z,101879.53
2022-08-24T07:33:36.147Z,101887.28
2022-08-24T07:36:05.143Z,101877.28
2022-08-24T07:38:34.622Z,101892.41
2022-08-24T07:41:33.720Z,101882.44
2022-08-24T07:43:52.751Z,101879.63
2022-08-24T07:46:22.829Z,101881.25
2022-08-24T07:49:05.130Z,101887.44
2022-08-24T07:51:44.806Z,101885.56
2022-08-24T07:54:15.876Z,101885.31
2022-08-24T07:56:45.449Z,101886.13
2022-08-24T07:59:14.633Z,101878.09
2022-08-24T08:01:43.220Z,101890.50
2022-08-24T08:04:14.272Z,101883.03
2022-08-24T08:06:43.111Z,101891.81
2022-08-24T08:09:11.900Z,101891.72
2022-08-24T08:11:41.884Z,101896.84
2022-08-24T08:14:10.781Z,101893.28
2022-08-24T08:16:39.231Z,101901.94
2022-08-24T08:19:11.199Z,101913.38
2022-08-24T08:22:10.409Z,101910.47
2022-08-24T08:24:58.665Z,101912.03
2022-08-24T08:27:28.080Z,101909.00
2022-08-24T08:29:57.335Z,101911.38
2022-08-24T08:32:26.032Z,101914.44
2022-08-24T08:35:00.102Z,101908.59
2022-08-24T08:37:31.307Z,101916.06
2022-08-24T08:40:00.543Z,101908.28
2022-08-24T08:42:56.366Z,101923.06
2022-08-24T08:46:06.706Z,101912.63
2022-08-24T08:49:25.036Z,101920.06
2022-08-24T08:52:27.294Z,101921.50
2022-08-24T08:55:14.563Z,101922.84
2022-08-24T08:58:03.920Z,101924.56
2022-08-24T09:01:12.107Z,101922.56
2022-08-24T09:04:05.537Z,101915.53
2022-08-24T09:07:23.105Z,101914.50
2022-08-24T09:10:28.904Z,101914.44
2022-08-24T09:13:09.235Z,101924.50
2022-08-24T09:16:19.102Z,101921.06
2022-08-24T09:19:10.529Z,101919.47
2022-08-24T09:22:00.702Z,101917.06
2022-08-24T09:24:40.857Z,101916.66
2022-08-24T09:27:43.436Z,101915.56
2022-08-24T09:30:20.831Z,101925.97
2022-08-24T09:33:04.533Z,101925.28
2022-08-24T09:35:48.934Z,101920.56
2022-08-24T09:38:43.529Z,101918.94
2022-08-24T09:41:59.002Z,101918.34
2022-08-24T09:44:39.886Z,101918.00
2022-08-24T09:47:29.933Z,101915.38
2022-08-24T09:50:01.196Z,101925.25
2022-08-24T09:52:45.811Z,101923.63
2022-08-24T09:55:33.291Z,101926.59
2022-08-24T09:58:45.148Z,101923.75
2022-08-24T10:01:36.540Z,101922.47
2022-08-24T10:04:12.514Z,101928.06
2022-08-24T10:06:51.254Z,101921.00
2022-08-24T10:09:43.233Z,101927.06
2022-08-24T10:12:47.355Z,101925.25
2022-08-24T10:15:36.055Z,101931.66
2022-08-24T10:18:22.790Z,101923.41
2022-08-24T10:21:03.566Z,101923.78
2022-08-24T10:23:51.689Z,101913.38
2022-08-24T10:26:57.704Z,101916.47
2022-08-24T10:29:29.034Z,101912.53
2022-08-24T10:32:34.742Z,101908.72
2022-08-24T10:35:14.090Z,101914.44
2022-08-24T10:38:42.260Z,101910.88
2022-08-24T10:41:23.768Z,101908.66
2022-08-24T10:44:12.816Z,101913.59
2022-08-24T10:47:06.729Z,101911.09
2022-08-24T10:49:37.738Z,101909.06
2022-08-24T10:52:43.693Z,101915.75
2022-08-24T10:55:21.447Z,101912.84
2022-08-24T10:57:56.832Z,101901.00
2022-08-24T11:00:30.953Z,101909.75
2022-08-24T11:03:21.354Z,101904.84
2022-08-24T11:05:58.002Z,101899.94
2022-08-24T11:08:33.460Z,101892.19
2022-08-24T11:11:10.031Z,101898.31
2022-08-24T11:13:51.131Z,101899.13
2022-08-24T11:16:42.886Z,101895.22
2022-08-24T11:19:14.743Z,101900.78
2022-08-24T11:21:43.967Z,101895.50
2022-08-24T11:24:38.582Z,101897.28
2022-08-24T11:27:30.554Z,101894.41
2022-08-24T11:30:03.231Z,101899.44
2022-08-24T11:32:43.348Z,101899.84
2022-08-24T11:35:14.985Z,101904.06
2022-08-24T11:38:23.976Z,101896.00
2022-08-24T11:41:01.059Z,101907.38
2022-08-24T11:43:48.012Z,101899.13
2022-08-24T11:46:50.526Z,101906.19
2022-08-24T11:49:27.501Z,101896.81
2022-08-24T11:52:24.719Z,101901.28
2022-08-24T11:55:09.140Z,101902.16
2022-08-24T11:58:03.494Z,101896.56
2022-08-24T12:00:59.268Z,101898.41
2022-08-24T12:03:39.513Z,101896.72
2022-08-24T12:06:40.787Z,101893.94
2022-08-24T12:09:46.704Z,101887.56
2022-08-24T12:12:46.706Z,101895.53
2022-08-24T12:15:17.801Z,101892.09
2022-08-24T12:18:05.296Z,101885.28
2022-08-24T12:20:48.270Z,101892.00
2022-08-24T12:23:19.787Z,101885.81
2022-08-24T12:26:03.095Z,101882.38
2022-08-24T12:28:46.223Z,101895.41
2022-08-24T12:31:39.482Z,101888.44
2022-08-24T12:34:20.427Z,101891.00
2022-08-24T12:36:51.878Z,101895.22
2022-08-24T12:39:28.678Z,101889.63
2022-08-24T12:42:23.753Z,101879.59
2022-08-24T12:45:13.496Z,101889.31
2022-08-24T12:48:17.471Z,101888.34
2022-08-24T12:51:01.626Z,101887.56
2022-08-24T12:53:51.405Z,101878.47
2022-08-24T12:56:45.357Z,101888.94
2022-08-24T12:59:25.820Z,101884.44
2022-08-24T13:02:06.037Z,101886.78
2022-08-24T13:04:43.314Z,101889.31
2022-08-24T13:07:30.724Z,101883.13
2022-08-24T13:09:58.999Z,101881.91
2022-08-24T13:12:41.406Z,101888.59
2022-08-24T13:15:20.861Z,101880.09
2022-08-24T13:18:21.635Z,101885.63
2022-08-24T13:20:51.553Z,101887.53
2022-08-24T13:23:22.773Z,101878.47
2022-08-24T13:25:58.546Z,101877.38
2022-08-24T13:28:29.817Z,101895.22
2022-08-24T13:31:32.678Z,101882.56
2022-08-24T13:34:24.986Z,101881.25
2022-08-24T13:37:18.746Z,101879.59
2022-08-24T13:40:00.849Z,101883.78
2022-08-24T13:42:38.835Z,101873.00
2022-08-24T13:45:16.433Z,101869.09
2022-08-24T13:47:44.960Z,101876.81
2022-08-24T13:50:38.303Z,101874.63
2022-08-24T13:53:18.775Z,101872.38
2022-08-24T13:55:52.053Z,101878.53
2022-08-24T13:58:48.838Z,101868.97
2022-08-24T14:01:59.650Z,101869.84
2022-08-24T14:04:28.078Z,101874.06
2022-08-24T14:07:08.569Z,101864.81
2022-08-24T14:09:42.746Z,101861.59
2022-08-24T14:12:22.117Z,101867.88
2022-08-24T14:15:03.049Z,101871.91
2022-08-24T14:17:54.099Z,101873.66
2022-08-24T14:20:46.181Z,101878.53
2022-08-24T14:23:39.645Z,101879.66
2022-08-24T14:26:33.073Z,101871.34
2022-08-24T14:29:19.776Z,101872.69
2022-08-24T14:32:11.796Z,101872.88
2022-08-24T14:35:18.820Z,101874.81
2022-08-24T14:38:10.606Z,101869.31
2022-08-24T14:41:12.493Z,101872.47
2022-08-24T14:44:03.849Z,101861.38
2022-08-24T14:47:06.934Z,101862.06
2022-08-24T14:49:45.003Z,101864.78
2022-08-24T14:52:35.445Z,101857.44
2022-08-24T14:55:18.260Z,101858.50
2022-08-24T14:58:08.181Z,101858.34
2022-08-24T15:01:25.050Z,101848.34
2022-08-24T15:04:06.503Z,101849.16
2022-08-24T15:06:50.590Z,101850.09
2022-08-24T15:09:38.001Z,101859.13
2022-08-24T15:12:39.499Z,101846.53
2022-08-24T15:15:23.823Z,101841.97
2022-08-24T15:17:57.771Z,101841.25
2022-08-24T15:21:09.020Z,101840.38
2022-08-24T15:23:57.557Z,101852.28
2022-08-24T15:27:03.474Z,101840.81
2022-08-24T15:29:34.537Z,101837.75
2022-08-24T15:32:22.415Z,101840.00
2022-08-24T15:34:59.612Z,101843.03
2022-08-24T15:37:38.437Z,101846.91
2022-08-24T15:40:22.215Z,101839.38
2022-08-24T15:42:51.407Z,101836.19
2022-08-24T15:45:21.105Z,101846.22
2022-08-24T15:47:53.169Z,101843.72
2022-08-24T15:50:30.286Z,101849.19
2022-08-24T15:53:08.083Z,101850.41
2022-08-24T15:55:48.099Z,101848.88
2022-08-24T15:58:37.610Z,101850.88
2022-08-24T16:01:30.665Z,101848.50
2022-08-24T16:04:11.631Z,101845.00
2022-08-24T16:06:43.441Z,101843.22
2022-08-24T16:09:20.824Z,101842.38
2022-08-24T16:12:16.329Z,101839.66
2022-08-24T16:14:48.557Z,101839.88
2022-08-24T16:17:34.157Z,101836.56
2022-08-24T16:20:07.965Z,101840.56
2022-08-24T16:23:00.353Z,101842.69
2022-08-24T16:25:42.937Z,101847.41
2022-08-24T16:28:13.526Z,101833.06
2022-08-24T16:30:51.826Z,101836.97
2022-08-24T16:33:41.961Z,101835.47
2022-08-24T16:36:16.530Z,101831.94
2022-08-24T16:38:48.424Z,101839.16
2022-08-24T16:41:22.988Z,101835.75
2022-08-24T16:43:51.706Z,101834.06
2022-08-24T16:46:24.084Z,101827.06
2022-08-24T16:48:54.640Z,101837.09
2022-08-24T16:51:24.594Z,101841.69
2022-08-24T16:53:54.967Z,101841.91
2022-08-24T16:56:23.308Z,101837.69
2022-08-24T16:58:51.809Z,101834.41
2022-08-24T17:01:20.342Z,101839.06
2022-08-24T17:03:50.547Z,101839.44
2022-08-24T17:06:19.657Z,101837.91
2022-08-24T17:08:49.421Z,101834.47
2022-08-24T17:11:19.450Z,101838.28
2022-08-24T17:13:50.201Z,101835.84
2022-08-24T17:16:21.252Z,101836.13
2022-08-24T17:18:49.900Z,101845.34
2022-08-24T17:21:18.502Z,101841.03
2022-08-24T17:23:50.174Z,101843.13
2022-08-24T17:26:21.494Z,101845.16
2022-08-24T17:28:55.370Z,101840.91
2022-08-24T17:31:29.073Z,101839.28
2022-08-24T17:34:01.510Z,101839.56
2022-08-24T17:36:32.470Z,101838.81
2022-08-24T17:39:02.571Z,101841.66
2022-08-24T17:41:31.881Z,101849.03
2022-08-24T17:44:01.418Z,101848.22
2022-08-24T17:46:31.652Z,101855.47
2022-08-24T17:49:02.216Z,101861.91
2022-08-24T17:51:30.965Z,101863.78
2022-08-24T17:54:02.050Z,101866.63
2022-08-24T17:56:37.703Z,101866.84
2022-08-24T17:59:23.056Z,101862.47
2022-08-24T18:01:54.967Z,101859.03
2022-08-24T18:04:26.094Z,101860.09
2022-08-24T18:06:56.486Z,101863.78
2022-08-24T18:09:35.201Z,101869.34
2022-08-24T18:12:08.342Z,101869.41
2022-08-24T18:14:36.616Z,101871.34
2022-08-24T18:17:08.792Z,101877.72
2022-08-24T18:19:39.610Z,101876.16
2022-08-24T18:22:07.971Z,101876.38
2022-08-24T18:24:36.588Z,101884.66
2022-08-24T18:27:10.275Z,101876.72
2022-08-24T18:29:42.621Z,101882.34
2022-08-24T18:32:12.445Z,101893.28
2022-08-24T18:34:41.471Z,101889.94
2022-08-24T18:37:10.098Z,101895.50
2022-08-24T18:39:38.496Z,101902.78
2022-08-24T18:42:09.056Z,101903.84
2022-08-24T18:44:39.025Z,101911.16
2022-08-24T18:47:08.872Z,101905.06
2022-08-24T18:49:38.228Z,101915.09
2022-08-24T18:52:09.809Z,101908.13
2022-08-24T18:54:41.933Z,101908.31
2022-08-24T18:57:10.979Z,101914.72
2022-08-24T18:59:40.866Z,101915.75
2022-08-24T19:02:36.009Z,101919.56
2022-08-24T19:05:24.679Z,101927.84
2022-08-24T19:07:55.803Z,101926.19
2022-08-24T19:10:29.034Z,101926.38
2022-08-24T19:13:03.683Z,101930.13
2022-08-24T19:15:39.920Z,101930.38
2022-08-24T19:18:13.404Z,101930.59
2022-08-24T19:20:48.416Z,101927.19
2022-08-24T19:23:27.923Z,101928.34
2022-08-24T19:25:57.437Z,101939.25
2022-08-24T19:28:27.117Z,101944.91
2022-08-24T19:30:57.893Z,101940.63
2022-08-24T19:33:34.490Z,101937.16
2022-08-24T19:36:03.189Z,101944.47
2022-08-24T19:38:31.859Z,101944.63
2022-08-24T19:41:02.612Z,101943.91
2022-08-24T19:44:01.585Z,101943.16
2022-08-24T19:46:30.054Z,101944.19
2022-08-24T19:48:58.638Z,101944.34
2022-08-24T19:51:27.157Z,101945.34
2022-08-24T19:53:55.527Z,101938.25
2022-08-24T19:56:24.569Z,101948.13
2022-08-24T19:59:00.883Z,101939.28
2022-08-24T20:01:34.847Z,101935.75
2022-08-24T20:04:07.041Z,101938.56
2022-08-24T20:06:37.433Z,101930.59
2022-08-24T20:09:08.743Z,101941.53
2022-08-24T20:11:39.275Z,101938.88
2022-08-24T20:14:07.681Z,101937.16
2022-08-24T20:16:39.558Z,101933.63
2022-08-24T20:19:11.320Z,101925.69
2022-08-24T20:21:43.987Z,101931.09
2022-08-24T20:24:12.962Z,101923.97
2022-08-24T20:26:44.083Z,101939.22
2022-08-24T20:29:13.382Z,101932.16
2022-08-24T20:31:42.455Z,101927.63
2022-08-24T20:34:10.949Z,101933.94
2022-08-24T20:36:43.795Z,101939.38
2022-08-24T20:39:14.058Z,101943.88
2022-08-24T20:41:42.550Z,101936.75
2022-08-24T20:44:11.755Z,101928.72
2022-08-24T20:46:40.837Z,101925.19
2022-08-24T20:49:17.035Z,101927.06
2022-08-24T20:51:47.944Z,101934.25
2022-08-24T20:54:16.547Z,101923.50
2022-08-24T20:56:45.185Z,101927.97
2022-08-24T20:59:15.082Z,101932.50
2022-08-24T21:01:43.757Z,101933.44
2022-08-24T21:04:18.346Z,101931.66
2022-08-24T21:06:46.865Z,101937.03
2022-08-24T21:09:19.110Z,101929.97
2022-08-24T21:11:47.506Z,101930.00
2022-08-24T21:14:15.882Z,101925.59
2022-08-24T21:16:44.527Z,101927.53
2022-08-24T21:19:17.961Z,101923.06
2022-08-24T21:21:47.177Z,101920.41
2022-08-24T21:24:16.485Z,101924.94
2022-08-24T21:26:46.674Z,101920.50
2022-08-24T21:29:16.660Z,101924.09
2022-08-24T21:32:05.065Z,101913.44
2022-08-24T21:34:43.272Z,101918.03
2022-08-24T21:37:15.179Z,101917.28
2022-08-24T21:39:47.427Z,101917.34
2022-08-24T21:42:17.577Z,101909.34
2022-08-24T21:44:48.510Z,101911.19
2022-08-24T21:47:17.486Z,101910.38
2022-08-24T21:49:46.563Z,101913.09
2022-08-24T21:52:15.569Z,101915.00
2022-08-24T21:54:46.052Z,101913.34
2022-08-24T21:57:15.805Z,101916.06
2022-08-24T21:59:44.445Z,101912.50
2022-08-24T22:02:13.435Z,101908.94
2022-08-24T22:04:56.233Z,101903.56
2022-08-24T22:07:25.239Z,101902.63
2022-08-24T22:09:56.131Z,101903.47
2022-08-24T22:12:24.676Z,101901.50
2022-08-24T22:14:54.834Z,101897.84
2022-08-24T22:17:23.240Z,101902.31
2022-08-24T22:19:51.699Z,101901.31
2022-08-24T22:22:20.074Z,101903.00
2022-08-24T22:24:48.375Z,101907.28
2022-08-24T22:27:17.053Z,101910.81
2022-08-24T22:29:51.941Z,101908.06
2022-08-24T22:32:20.922Z,101907.19
2022-08-24T22:34:49.256Z,101903.59
2022-08-24T22:37:18.677Z,101900.00
2022-08-24T22:39:47.081Z,101899.16
2022-08-24T22:42:15.541Z,101901.03
2022-08-24T22:44:43.950Z,101895.78
2022-08-24T22:47:15.018Z,101891.41
2022-08-24T22:49:44.290Z,101894.19
2022-08-24T22:52:14.337Z,101896.06
2022-08-24T22:54:47.626Z,101902.38
2022-08-24T22:57:19.915Z,101892.63
2022-08-24T22:59:48.604Z,101896.31
2022-08-24T23:02:19.762Z,101892.81
2022-08-24T23:04:51.131Z,101894.69
2022-08-24T23:07:21.205Z,101900.13
2022-08-24T23:09:49.692Z,101897.53
2022-08-24T23:12:22.453Z,101895.88
2022-08-24T23:14:52.249Z,101892.41
2022-08-24T23:17:22.059Z,101902.34
2022-08-24T23:20:06.423Z,101893.38
2022-08-24T23:22:38.790Z,101898.84
2022-08-24T23:25:09.930Z,101899.81
2022-08-24T23:27:39.074Z,101897.16
2022-08-24T23:30:10.789Z,101889.97
2022-08-24T23:32:39.685Z,101893.63
2022-08-24T23:35:08.433Z,101886.53
2022-08-24T23:37:36.837Z,101894.47
2022-08-24T23:40:05.844Z,101905.22
2022-08-24T23:42:34.231Z,101897.16
2022-08-24T23:45:03.589Z,101899.78
2022-08-24T23:47:35.898Z,101897.09
2022-08-24T23:50:10.688Z,101896.16
2022-08-24T23:52:40.999Z,101883.63
2022-08-24T23:55:21.347Z,101882.72
2022-08-24T23:57:53.554Z,101885.41
